sensor_id;sensor_type;location;lat;lon;timestamp;temperature;humidity
10566;DHT22;5331;48.148;16.326;2022-09-21T00:00:29;9.40;1.00
10566;DHT22;5331;48.148;16.326;2022-09-21T00:02:58;9.50;1.00
10566;DHT22;5331;48.148;16.326;2022-09-21T00:05:25;9.50;1.00
10566;DHT22;5331;48.148;16.326;2022-09-21T00:07:52;9.60;1.00
10566;DHT22;5331;48.148;16.326;2022-09-21T00:10:19;9.60;1.00
10566;DHT22;5331;48.148;16.326;2022-09-21T00:12:46;9.60;1.00
10566;DHT22;5331;48.148;16.326;2022-09-21T00:15:15;9.60;1.00
10566;DHT22;5331;48.148;16.326;2022-09-21T00:17:43;9.60;1.00
10566;DHT22;5331;48.148;16.326;2022-09-21T00:20:12;9.70;1.00
10566;DHT22;5331;48.148;16.326;2022-09-21T00:22:39;9.60;1.00
10566;DHT22;5331;48.148;16.326;2022-09-21T00:25:07;9.70;1.00
10566;DHT22;5331;48.148;16.326;2022-09-21T00:27:35;9.60;1.00
10566;DHT22;5331;48.148;16.326;2022-09-21T00:30:03;9.60;1.00
10566;DHT22;5331;48.148;16.326;2022-09-21T00:32:32;9.60;1.00
10566;DHT22;5331;48.148;16.326;2022-09-21T00:35:00;9.60;1.00
10566;DHT22;5331;48.148;16.326;2022-09-21T00:37:29;9.60;1.00
10566;DHT22;5331;48.148;16.326;2022-09-21T00:39:56;9.70;1.00
10566;DHT22;5331;48.148;16.326;2022-09-21T00:42:25;9.70;1.00
10566;DHT22;5331;48.148;16.326;2022-09-21T00:44:52;9.70;1.00
10566;DHT22;5331;48.148;16.326;2022-09-21T00:47:22;9.60;1.00
10566;DHT22;5331;48.148;16.326;2022-09-21T00:49:54;9.60;1.00
10566;DHT22;5331;48.148;16.326;2022-09-21T00:52:22;9.60;1.00
10566;DHT22;5331;48.148;16.326;2022-09-21T00:54:53;9.60;1.00
10566;DHT22;5331;48.148;16.326;2022-09-21T00:57:24;9.60;1.00
10566;DHT22;5331;48.148;16.326;2022-09-21T00:59:54;9.60;1.00
10566;DHT22;5331;48.148;16.326;2022-09-21T01:02:23;9.50;1.00
10566;DHT22;5331;48.148;16.326;2022-09-21T01:04:52;9.50;1.00
10566;DHT22;5331;48.148;16.326;2022-09-21T01:07:21;9.50;1.00
10566;DHT22;5331;48.148;16.326;2022-09-21T01:09:54;9.50;1.00
10566;DHT22;5331;48.148;16.326;2022-09-21T01:12:33;9.50;1.00
10566;DHT22;5331;48.148;16.326;2022-09-21T01:15:17;9.50;1.00
10566;DHT22;5331;48.148;16.326;2022-09-21T01:17:50;9.50;1.00
10566;DHT22;5331;48.148;16.326;2022-09-21T01:26:25;9.40;1.00
10566;DHT22;5331;48.148;16.326;2022-09-21T01:29:12;9.30;1.00
10566;DHT22;5331;48.148;16.326;2022-09-21T01:31:43;9.40;1.00
10566;DHT22;5331;48.148;16.326;2022-09-21T01:34:15;9.40;1.00
10566;DHT22;5331;48.148;16.326;2022-09-21T01:36:46;9.40;1.00
10566;DHT22;5331;48.148;16.326;2022-09-21T01:39:16;9.30;1.00
10566;DHT22;5331;48.148;16.326;2022-09-21T01:41:46;9.30;1.00
10566;DHT22;5331;48.148;16.326;2022-09-21T01:44:18;9.30;1.00
10566;DHT22;5331;48.148;16.326;2022-09-21T01:46:46;9.30;1.00
10566;DHT22;5331;48.148;16.326;2022-09-21T01:49:17;9.30;1.00
10566;DHT22;5331;48.148;16.326;2022-09-21T01:51:50;9.30;1.00
10566;DHT22;5331;48.148;16.326;2022-09-21T01:54:21;9.50;1.00
10566;DHT22;5331;48.148;16.326;2022-09-21T01:56:54;9.50;1.00
10566;DHT22;5331;48.148;16.326;2022-09-21T01:59:29;9.40;1.00
10566;DHT22;5331;48.148;16.326;2022-09-21T02:02:03;9.40;1.00
10566;DHT22;5331;48.148;16.326;2022-09-21T02:04:33;9.30;1.00
10566;DHT22;5331;48.148;16.326;2022-09-21T02:07:00;9.30;1.00
10566;DHT22;5331;48.148;16.326;2022-09-21T02:09:28;9.30;1.00
10566;DHT22;5331;48.148;16.326;2022-09-21T02:11:55;9.30;1.00
10566;DHT22;5331;48.148;16.326;2022-09-21T02:14:24;9.30;1.00
10566;DHT22;5331;48.148;16.326;2022-09-21T02:16:58;9.30;1.00
10566;DHT22;5331;48.148;16.326;2022-09-21T02:19:33;9.40;1.00
10566;DHT22;5331;48.148;16.326;2022-09-21T02:22:05;9.50;1.00
10566;DHT22;5331;48.148;16.326;2022-09-21T02:24:39;9.50;1.00
10566;DHT22;5331;48.148;16.326;2022-09-21T02:27:14;9.60;1.00
10566;DHT22;5331;48.148;16.326;2022-09-21T02:29:49;9.60;1.00
10566;DHT22;5331;48.148;16.326;2022-09-21T02:32:25;9.60;1.00
10566;DHT22;5331;48.148;16.326;2022-09-21T02:35:00;9.70;1.00
10566;DHT22;5331;48.148;16.326;2022-09-21T02:37:34;9.70;1.00
10566;DHT22;5331;48.148;16.326;2022-09-21T02:40:08;9.70;1.00
10566;DHT22;5331;48.148;16.326;2022-09-21T02:42:39;9.70;1.00
10566;DHT22;5331;48.148;16.326;2022-09-21T02:45:12;9.70;1.00
10566;DHT22;5331;48.148;16.326;2022-09-21T02:47:45;9.70;1.00
10566;DHT22;5331;48.148;16.326;2022-09-21T02:50:16;9.70;1.00
10566;DHT22;5331;48.148;16.326;2022-09-21T02:52:45;9.70;1.00
10566;DHT22;5331;48.148;16.326;2022-09-21T02:55:12;9.70;1.00
10566;DHT22;5331;48.148;16.326;2022-09-21T02:57:41;9.70;1.00
10566;DHT22;5331;48.148;16.326;2022-09-21T03:00:11;9.70;1.00
10566;DHT22;5331;48.148;16.326;2022-09-21T03:02:39;9.70;1.00
10566;DHT22;5331;48.148;16.326;2022-09-21T03:05:08;9.70;1.00
10566;DHT22;5331;48.148;16.326;2022-09-21T03:07:35;9.70;1.00
10566;DHT22;5331;48.148;16.326;2022-09-21T03:10:03;9.70;1.00
10566;DHT22;5331;48.148;16.326;2022-09-21T03:12:30;9.70;1.00
10566;DHT22;5331;48.148;16.326;2022-09-21T03:14:58;9.70;1.00
10566;DHT22;5331;48.148;16.326;2022-09-21T03:17:26;9.70;1.00
10566;DHT22;5331;48.148;16.326;2022-09-21T03:19:53;9.80;1.00
10566;DHT22;5331;48.148;16.326;2022-09-21T03:22:21;9.80;1.00
10566;DHT22;5331;48.148;16.326;2022-09-21T03:24:48;9.70;1.00
10566;DHT22;5331;48.148;16.326;2022-09-21T03:27:17;9.70;1.00
10566;DHT22;5331;48.148;16.326;2022-09-21T03:29:44;9.70;1.00
10566;DHT22;5331;48.148;16.326;2022-09-21T03:32:12;9.70;1.00
10566;DHT22;5331;48.148;16.326;2022-09-21T03:34:41;9.70;1.00
10566;DHT22;5331;48.148;16.326;2022-09-21T03:37:08;9.80;1.00
10566;DHT22;5331;48.148;16.326;2022-09-21T03:39:35;9.70;1.00
10566;DHT22;5331;48.148;16.326;2022-09-21T03:42:03;9.70;1.00
10566;DHT22;5331;48.148;16.326;2022-09-21T03:44:30;9.70;1.00
10566;DHT22;5331;48.148;16.326;2022-09-21T03:46:58;9.70;1.00
10566;DHT22;5331;48.148;16.326;2022-09-21T03:49:25;9.70;1.00
10566;DHT22;5331;48.148;16.326;2022-09-21T03:51:53;9.70;1.00
10566;DHT22;5331;48.148;16.326;2022-09-21T03:54:20;9.70;1.00
10566;DHT22;5331;48.148;16.326;2022-09-21T03:56:47;9.80;1.00
10566;DHT22;5331;48.148;16.326;2022-09-21T03:59:14;9.70;1.00
10566;DHT22;5331;48.148;16.326;2022-09-21T04:01:41;9.70;1.00
10566;DHT22;5331;48.148;16.326;2022-09-21T04:04:08;9.70;1.00
10566;DHT22;5331;48.148;16.326;2022-09-21T04:06:35;9.70;1.00
10566;DHT22;5331;48.148;16.326;2022-09-21T04:09:04;9.70;1.00
10566;DHT22;5331;48.148;16.326;2022-09-21T04:11:31;9.60;1.00
10566;DHT22;5331;48.148;16.326;2022-09-21T04:13:58;9.60;1.00
10566;DHT22;5331;48.148;16.326;2022-09-21T04:16:25;9.60;1.00
10566;DHT22;5331;48.148;16.326;2022-09-21T04:18:53;9.40;1.00
10566;DHT22;5331;48.148;16.326;2022-09-21T04:21:20;9.30;1.00
10566;DHT22;5331;48.148;16.326;2022-09-21T04:23:47;9.30;1.00
10566;DHT22;5331;48.148;16.326;2022-09-21T04:26:21;9.20;1.00
10566;DHT22;5331;48.148;16.326;2022-09-21T04:28:49;9.20;1.00
10566;DHT22;5331;48.148;16.326;2022-09-21T04:31:16;9.20;1.00
10566;DHT22;5331;48.148;16.326;2022-09-21T04:33:43;9.10;1.00
10566;DHT22;5331;48.148;16.326;2022-09-21T04:36:10;9.10;1.00
10566;DHT22;5331;48.148;16.326;2022-09-21T04:38:37;9.10;1.00
10566;DHT22;5331;48.148;16.326;2022-09-21T04:41:05;9.00;1.00
10566;DHT22;5331;48.148;16.326;2022-09-21T04:43:33;9.00;1.00
10566;DHT22;5331;48.148;16.326;2022-09-21T04:46:04;9.00;1.00
10566;DHT22;5331;48.148;16.326;2022-09-21T04:48:31;9.10;1.00
10566;DHT22;5331;48.148;16.326;2022-09-21T04:50:58;9.10;1.00
10566;DHT22;5331;48.148;16.326;2022-09-21T04:53:25;9.10;1.00
10566;DHT22;5331;48.148;16.326;2022-09-21T04:55:52;9.20;1.00
10566;DHT22;5331;48.148;16.326;2022-09-21T04:58:20;9.20;1.00
10566;DHT22;5331;48.148;16.326;2022-09-21T05:00:50;9.20;1.00
10566;DHT22;5331;48.148;16.326;2022-09-21T05:03:17;9.30;1.00
10566;DHT22;5331;48.148;16.326;2022-09-21T05:05:49;9.30;1.00
10566;DHT22;5331;48.148;16.326;2022-09-21T05:08:17;9.20;1.00
10566;DHT22;5331;48.148;16.326;2022-09-21T05:11:04;9.30;1.00
10566;DHT22;5331;48.148;16.326;2022-09-21T05:13:30;9.30;1.00
10566;DHT22;5331;48.148;16.326;2022-09-21T05:15:58;9.20;1.00
10566;DHT22;5331;48.148;16.326;2022-09-21T05:18:26;9.30;1.00
10566;DHT22;5331;48.148;16.326;2022-09-21T05:20:53;9.30;1.00
10566;DHT22;5331;48.148;16.326;2022-09-21T05:23:21;9.30;1.00
10566;DHT22;5331;48.148;16.326;2022-09-21T05:25:48;9.40;1.00
10566;DHT22;5331;48.148;16.326;2022-09-21T05:28:17;9.40;1.00
10566;DHT22;5331;48.148;16.326;2022-09-21T05:30:47;9.40;1.00
10566;DHT22;5331;48.148;16.326;2022-09-21T05:33:19;9.50;1.00
10566;DHT22;5331;48.148;16.326;2022-09-21T05:35:57;9.50;1.00
10566;DHT22;5331;48.148;16.326;2022-09-21T05:38:26;9.60;1.00
10566;DHT22;5331;48.148;16.326;2022-09-21T05:40:53;9.60;1.00
10566;DHT22;5331;48.148;16.326;2022-09-21T05:43:21;9.70;1.00
10566;DHT22;5331;48.148;16.326;2022-09-21T05:45:51;10.40;1.00
10566;DHT22;5331;48.148;16.326;2022-09-21T05:48:25;11.60;1.00
10566;DHT22;5331;48.148;16.326;2022-09-21T05:50:58;12.50;1.00
10566;DHT22;5331;48.148;16.326;2022-09-21T05:53:44;13.30;1.00
10566;DHT22;5331;48.148;16.326;2022-09-21T05:56:21;13.90;1.00
10566;DHT22;5331;48.148;16.326;2022-09-21T05:58:55;14.00;1.00
10566;DHT22;5331;48.148;16.326;2022-09-21T06:01:35;15.20;1.00
10566;DHT22;5331;48.148;16.326;2022-09-21T06:04:09;15.10;1.00
10566;DHT22;5331;48.148;16.326;2022-09-21T06:06:37;15.60;1.00
10566;DHT22;5331;48.148;16.326;2022-09-21T06:09:04;15.50;1.00
10566;DHT22;5331;48.148;16.326;2022-09-21T06:11:31;15.90;1.00
10566;DHT22;5331;48.148;16.326;2022-09-21T06:13:59;15.90;1.00
10566;DHT22;5331;48.148;16.326;2022-09-21T06:16:26;16.10;1.00
10566;DHT22;5331;48.148;16.326;2022-09-21T06:18:53;16.30;1.00
10566;DHT22;5331;48.148;16.326;2022-09-21T06:21:21;16.50;1.00
10566;DHT22;5331;48.148;16.326;2022-09-21T06:23:48;16.80;1.00
10566;DHT22;5331;48.148;16.326;2022-09-21T06:26:15;16.80;1.00
10566;DHT22;5331;48.148;16.326;2022-09-21T06:28:42;17.00;1.00
10566;DHT22;5331;48.148;16.326;2022-09-21T06:31:09;17.20;1.00
10566;DHT22;5331;48.148;16.326;2022-09-21T06:33:36;16.90;1.00
10566;DHT22;5331;48.148;16.326;2022-09-21T06:36:03;16.70;1.00
10566;DHT22;5331;48.148;16.326;2022-09-21T06:38:31;16.20;1.00
10566;DHT22;5331;48.148;16.326;2022-09-21T06:41:00;15.60;1.00
10566;DHT22;5331;48.148;16.326;2022-09-21T06:43:28;14.90;1.00
10566;DHT22;5331;48.148;16.326;2022-09-21T06:45:57;14.40;1.00
10566;DHT22;5331;48.148;16.326;2022-09-21T06:48:24;14.10;1.00
10566;DHT22;5331;48.148;16.326;2022-09-21T06:50:55;13.80;1.00
10566;DHT22;5331;48.148;16.326;2022-09-21T06:53:24;13.60;1.00
10566;DHT22;5331;48.148;16.326;2022-09-21T06:55:52;13.40;1.00
10566;DHT22;5331;48.148;16.326;2022-09-21T06:58:19;13.10;1.00
10566;DHT22;5331;48.148;16.326;2022-09-21T07:00:46;12.80;1.00
10566;DHT22;5331;48.148;16.326;2022-09-21T07:03:13;12.70;1.00
10566;DHT22;5331;48.148;16.326;2022-09-21T07:05:43;12.50;1.00
10566;DHT22;5331;48.148;16.326;2022-09-21T07:08:10;12.20;1.00
10566;DHT22;5331;48.148;16.326;2022-09-21T07:10:37;12.20;1.00
10566;DHT22;5331;48.148;16.326;2022-09-21T07:13:05;12.00;1.00
10566;DHT22;5331;48.148;16.326;2022-09-21T07:15:34;12.10;1.00
10566;DHT22;5331;48.148;16.326;2022-09-21T07:18:09;12.10;1.00
10566;DHT22;5331;48.148;16.326;2022-09-21T07:20:36;12.10;1.00
10566;DHT22;5331;48.148;16.326;2022-09-21T07:23:09;12.10;1.00
10566;DHT22;5331;48.148;16.326;2022-09-21T07:25:35;12.00;1.00
10566;DHT22;5331;48.148;16.326;2022-09-21T07:28:02;12.00;1.00
10566;DHT22;5331;48.148;16.326;2022-09-21T07:30:31;12.00;1.00
10566;DHT22;5331;48.148;16.326;2022-09-21T07:32:57;12.10;1.00
10566;DHT22;5331;48.148;16.326;2022-09-21T07:35:24;12.10;1.00
10566;DHT22;5331;48.148;16.326;2022-09-21T07:37:51;12.40;1.00
10566;DHT22;5331;48.148;16.326;2022-09-21T07:40:21;12.80;1.00
10566;DHT22;5331;48.148;16.326;2022-09-21T07:42:48;12.80;1.00
10566;DHT22;5331;48.148;16.326;2022-09-21T07:45:15;12.80;1.00
10566;DHT22;5331;48.148;16.326;2022-09-21T07:47:44;12.80;1.00
10566;DHT22;5331;48.148;16.326;2022-09-21T07:50:11;12.80;1.00
10566;DHT22;5331;48.148;16.326;2022-09-21T07:52:38;12.90;1.00
10566;DHT22;5331;48.148;16.326;2022-09-21T07:55:05;13.60;1.00
10566;DHT22;5331;48.148;16.326;2022-09-21T07:57:32;14.30;1.00
10566;DHT22;5331;48.148;16.326;2022-09-21T08:00:17;14.90;1.00
10566;DHT22;5331;48.148;16.326;2022-09-21T08:02:46;14.80;1.00
10566;DHT22;5331;48.148;16.326;2022-09-21T08:05:12;14.80;1.00
10566;DHT22;5331;48.148;16.326;2022-09-21T08:07:39;14.80;1.00
10566;DHT22;5331;48.148;16.326;2022-09-21T08:10:07;15.20;1.00
10566;DHT22;5331;48.148;16.326;2022-09-21T08:12:34;15.70;1.00
10566;DHT22;5331;48.148;16.326;2022-09-21T08:15:01;15.90;1.00
10566;DHT22;5331;48.148;16.326;2022-09-21T08:17:28;16.20;1.00
10566;DHT22;5331;48.148;16.326;2022-09-21T08:19:57;16.20;1.00
10566;DHT22;5331;48.148;16.326;2022-09-21T08:22:23;16.60;1.00
10566;DHT22;5331;48.148;16.326;2022-09-21T08:24:51;16.80;1.00
10566;DHT22;5331;48.148;16.326;2022-09-21T08:27:18;17.00;1.00
10566;DHT22;5331;48.148;16.326;2022-09-21T08:29:45;16.80;1.00
10566;DHT22;5331;48.148;16.326;2022-09-21T08:32:13;16.30;1.00
10566;DHT22;5331;48.148;16.326;2022-09-21T08:34:40;15.80;1.00
10566;DHT22;5331;48.148;16.326;2022-09-21T08:37:09;15.30;1.00
10566;DHT22;5331;48.148;16.326;2022-09-21T08:39:36;15.30;1.00
10566;DHT22;5331;48.148;16.326;2022-09-21T08:42:19;15.30;1.00
10566;DHT22;5331;48.148;16.326;2022-09-21T08:44:52;15.00;1.00
10566;DHT22;5331;48.148;16.326;2022-09-21T08:47:31;14.90;1.00
10566;DHT22;5331;48.148;16.326;2022-09-21T08:50:03;15.30;1.00
10566;DHT22;5331;48.148;16.326;2022-09-21T08:52:32;15.70;1.00
10566;DHT22;5331;48.148;16.326;2022-09-21T08:55:02;16.00;1.00
10566;DHT22;5331;48.148;16.326;2022-09-21T08:57:32;16.20;1.00
10566;DHT22;5331;48.148;16.326;2022-09-21T09:00:01;16.40;1.00
10566;DHT22;5331;48.148;16.326;2022-09-21T09:02:36;16.40;1.00
10566;DHT22;5331;48.148;16.326;2022-09-21T09:05:17;16.50;1.00
10566;DHT22;5331;48.148;16.326;2022-09-21T09:08:12;16.50;1.00
10566;DHT22;5331;48.148;16.326;2022-09-21T09:10:52;16.70;1.00
10566;DHT22;5331;48.148;16.326;2022-09-21T09:13:36;17.00;1.00
10566;DHT22;5331;48.148;16.326;2022-09-21T09:16:15;17.10;1.00
10566;DHT22;5331;48.148;16.326;2022-09-21T09:18:50;17.10;1.00
10566;DHT22;5331;48.148;16.326;2022-09-21T09:21:21;17.20;1.00
10566;DHT22;5331;48.148;16.326;2022-09-21T09:23:53;17.30;1.00
10566;DHT22;5331;48.148;16.326;2022-09-21T09:26:29;17.30;1.00
10566;DHT22;5331;48.148;16.326;2022-09-21T09:29:01;17.30;1.00
10566;DHT22;5331;48.148;16.326;2022-09-21T09:31:31;17.50;1.00
10566;DHT22;5331;48.148;16.326;2022-09-21T09:34:02;17.50;1.00
10566;DHT22;5331;48.148;16.326;2022-09-21T09:36:35;17.50;1.00
10566;DHT22;5331;48.148;16.326;2022-09-21T09:39:09;17.70;1.00
10566;DHT22;5331;48.148;16.326;2022-09-21T09:42:01;17.90;1.00
10566;DHT22;5331;48.148;16.326;2022-09-21T09:44:52;18.30;1.00
10566;DHT22;5331;48.148;16.326;2022-09-21T09:47:31;18.00;1.00
10566;DHT22;5331;48.148;16.326;2022-09-21T09:50:05;18.00;1.00
10566;DHT22;5331;48.148;16.326;2022-09-21T09:52:34;18.10;1.00
10566;DHT22;5331;48.148;16.326;2022-09-21T09:55:14;17.80;1.00
10566;DHT22;5331;48.148;16.326;2022-09-21T09:57:42;17.60;1.00
10566;DHT22;5331;48.148;16.326;2022-09-21T10:00:13;17.30;1.00
10566;DHT22;5331;48.148;16.326;2022-09-21T10:02:48;17.00;1.00
10566;DHT22;5331;48.148;16.326;2022-09-21T10:05:22;16.70;1.00
10566;DHT22;5331;48.148;16.326;2022-09-21T10:07:50;16.30;1.00
10566;DHT22;5331;48.148;16.326;2022-09-21T10:10:34;16.20;1.00
10566;DHT22;5331;48.148;16.326;2022-09-21T10:13:07;16.30;1.00
10566;DHT22;5331;48.148;16.326;2022-09-21T10:15:40;16.40;1.00
10566;DHT22;5331;48.148;16.326;2022-09-21T10:18:16;16.80;1.00
10566;DHT22;5331;48.148;16.326;2022-09-21T10:20:53;17.40;1.00
10566;DHT22;5331;48.148;16.326;2022-09-21T10:23:20;17.50;1.00
10566;DHT22;5331;48.148;16.326;2022-09-21T10:25:57;17.50;1.00
10566;DHT22;5331;48.148;16.326;2022-09-21T10:28:26;17.60;1.00
10566;DHT22;5331;48.148;16.326;2022-09-21T10:31:16;17.60;1.00
10566;DHT22;5331;48.148;16.326;2022-09-21T10:33:49;17.50;1.00
10566;DHT22;5331;48.148;16.326;2022-09-21T10:36:33;17.40;1.00
10566;DHT22;5331;48.148;16.326;2022-09-21T10:39:14;17.60;1.00
10566;DHT22;5331;48.148;16.326;2022-09-21T10:41:47;17.90;1.00
10566;DHT22;5331;48.148;16.326;2022-09-21T10:44:16;18.10;1.00
10566;DHT22;5331;48.148;16.326;2022-09-21T10:46:44;18.10;1.00
10566;DHT22;5331;48.148;16.326;2022-09-21T10:49:19;18.20;1.00
10566;DHT22;5331;48.148;16.326;2022-09-21T10:51:48;18.40;1.00
10566;DHT22;5331;48.148;16.326;2022-09-21T10:54:21;18.20;1.00
10566;DHT22;5331;48.148;16.326;2022-09-21T10:56:56;18.00;1.00
10566;DHT22;5331;48.148;16.326;2022-09-21T10:59:26;17.80;1.00
10566;DHT22;5331;48.148;16.326;2022-09-21T11:01:54;17.70;1.00
10566;DHT22;5331;48.148;16.326;2022-09-21T11:04:31;17.70;1.00
10566;DHT22;5331;48.148;16.326;2022-09-21T11:07:06;17.90;1.00
10566;DHT22;5331;48.148;16.326;2022-09-21T11:09:38;18.00;1.00
10566;DHT22;5331;48.148;16.326;2022-09-21T11:12:20;18.10;1.00
10566;DHT22;5331;48.148;16.326;2022-09-21T11:14:56;18.10;1.00
10566;DHT22;5331;48.148;16.326;2022-09-21T11:17:31;18.00;1.00
10566;DHT22;5331;48.148;16.326;2022-09-21T11:20:08;17.80;1.00
10566;DHT22;5331;48.148;16.326;2022-09-21T11:22:44;17.40;1.00
10566;DHT22;5331;48.148;16.326;2022-09-21T11:25:25;17.20;1.00
10566;DHT22;5331;48.148;16.326;2022-09-21T11:28:05;16.80;1.00
10566;DHT22;5331;48.148;16.326;2022-09-21T11:30:47;16.80;1.00
10566;DHT22;5331;48.148;16.326;2022-09-21T11:33:29;17.10;1.00
10566;DHT22;5331;48.148;16.326;2022-09-21T11:36:04;17.40;1.00
10566;DHT22;5331;48.148;16.326;2022-09-21T11:38:41;17.70;1.00
10566;DHT22;5331;48.148;16.326;2022-09-21T11:41:22;17.90;1.00
10566;DHT22;5331;48.148;16.326;2022-09-21T11:44:05;18.00;1.00
10566;DHT22;5331;48.148;16.326;2022-09-21T11:46:43;18.20;1.00
10566;DHT22;5331;48.148;16.326;2022-09-21T11:49:29;18.20;1.00
10566;DHT22;5331;48.148;16.326;2022-09-21T11:52:11;18.30;1.00
10566;DHT22;5331;48.148;16.326;2022-09-21T11:54:58;18.10;1.00
10566;DHT22;5331;48.148;16.326;2022-09-21T11:57:30;17.70;1.00
10566;DHT22;5331;48.148;16.326;2022-09-21T12:00:08;17.40;1.00
10566;DHT22;5331;48.148;16.326;2022-09-21T12:03:24;17.00;1.00
10566;DHT22;5331;48.148;16.326;2022-09-21T12:06:09;16.80;1.00
10566;DHT22;5331;48.148;16.326;2022-09-21T12:09:02;16.80;1.00
10566;DHT22;5331;48.148;16.326;2022-09-21T12:11:38;17.20;1.00
10566;DHT22;5331;48.148;16.326;2022-09-21T12:14:16;17.50;1.00
10566;DHT22;5331;48.148;16.326;2022-09-21T12:16:59;17.60;1.00
10566;DHT22;5331;48.148;16.326;2022-09-21T12:19:36;17.70;1.00
10566;DHT22;5331;48.148;16.326;2022-09-21T12:22:08;17.60;1.00
10566;DHT22;5331;48.148;16.326;2022-09-21T12:24:41;17.60;1.00
10566;DHT22;5331;48.148;16.326;2022-09-21T12:27:16;17.70;1.00
10566;DHT22;5331;48.148;16.326;2022-09-21T12:29:48;17.90;1.00
10566;DHT22;5331;48.148;16.326;2022-09-21T12:32:24;17.70;1.00
10566;DHT22;5331;48.148;16.326;2022-09-21T12:34:55;17.50;1.00
10566;DHT22;5331;48.148;16.326;2022-09-21T12:37:28;17.50;1.00
10566;DHT22;5331;48.148;16.326;2022-09-21T12:39:59;17.60;1.00
10566;DHT22;5331;48.148;16.326;2022-09-21T12:42:32;17.70;1.00
10566;DHT22;5331;48.148;16.326;2022-09-21T12:45:05;17.90;1.00
10566;DHT22;5331;48.148;16.326;2022-09-21T12:47:47;17.80;1.00
10566;DHT22;5331;48.148;16.326;2022-09-21T12:50:21;17.90;1.00
10566;DHT22;5331;48.148;16.326;2022-09-21T12:52:51;17.70;1.00
10566;DHT22;5331;48.148;16.326;2022-09-21T12:55:41;17.70;1.00
10566;DHT22;5331;48.148;16.326;2022-09-21T12:58:18;17.70;1.00
10566;DHT22;5331;48.148;16.326;2022-09-21T13:00:56;17.60;1.00
10566;DHT22;5331;48.148;16.326;2022-09-21T13:03:31;17.80;1.00
10566;DHT22;5331;48.148;16.326;2022-09-21T13:06:19;17.80;1.00
10566;DHT22;5331;48.148;16.326;2022-09-21T13:08:50;17.60;1.00
10566;DHT22;5331;48.148;16.326;2022-09-21T13:11:19;17.70;1.00
10566;DHT22;5331;48.148;16.326;2022-09-21T13:13:49;17.90;1.00
10566;DHT22;5331;48.148;16.326;2022-09-21T13:16:26;17.90;1.00
10566;DHT22;5331;48.148;16.326;2022-09-21T13:18:57;18.00;1.00
10566;DHT22;5331;48.148;16.326;2022-09-21T13:21:27;18.10;1.00
10566;DHT22;5331;48.148;16.326;2022-09-21T13:23:57;18.10;1.00
10566;DHT22;5331;48.148;16.326;2022-09-21T13:26:32;18.10;1.00
10566;DHT22;5331;48.148;16.326;2022-09-21T13:29:27;18.00;1.00
10566;DHT22;5331;48.148;16.326;2022-09-21T13:31:56;18.00;1.00
10566;DHT22;5331;48.148;16.326;2022-09-21T13:34:26;18.00;1.00
10566;DHT22;5331;48.148;16.326;2022-09-21T13:37:25;18.10;1.00
10566;DHT22;5331;48.148;16.326;2022-09-21T13:46:54;17.90;1.00
10566;DHT22;5331;48.148;16.326;2022-09-21T13:49:32;17.80;1.00
10566;DHT22;5331;48.148;16.326;2022-09-21T13:52:07;17.30;1.00
10566;DHT22;5331;48.148;16.326;2022-09-21T13:54:48;17.00;1.00
10566;DHT22;5331;48.148;16.326;2022-09-21T13:57:18;16.80;1.00
10566;DHT22;5331;48.148;16.326;2022-09-21T13:59:59;16.90;1.00
10566;DHT22;5331;48.148;16.326;2022-09-21T14:02:31;16.90;1.00
10566;DHT22;5331;48.148;16.326;2022-09-21T14:05:03;16.80;1.00
10566;DHT22;5331;48.148;16.326;2022-09-21T14:07:32;16.60;1.00
10566;DHT22;5331;48.148;16.326;2022-09-21T14:10:04;16.70;1.00
10566;DHT22;5331;48.148;16.326;2022-09-21T14:12:37;16.60;1.00
10566;DHT22;5331;48.148;16.326;2022-09-21T14:18:08;16.50;1.00
10566;DHT22;5331;48.148;16.326;2022-09-21T14:20:36;16.40;1.00
10566;DHT22;5331;48.148;16.326;2022-09-21T14:23:26;16.10;1.00
10566;DHT22;5331;48.148;16.326;2022-09-21T14:25:54;16.20;1.00
10566;DHT22;5331;48.148;16.326;2022-09-21T14:28:34;16.20;1.00
10566;DHT22;5331;48.148;16.326;2022-09-21T14:31:07;16.20;1.00
10566;DHT22;5331;48.148;16.326;2022-09-21T14:33:46;16.10;1.00
10566;DHT22;5331;48.148;16.326;2022-09-21T14:36:17;16.10;1.00
10566;DHT22;5331;48.148;16.326;2022-09-21T14:38:48;16.20;1.00
10566;DHT22;5331;48.148;16.326;2022-09-21T14:41:18;16.30;1.00
10566;DHT22;5331;48.148;16.326;2022-09-21T14:43:50;16.20;1.00
10566;DHT22;5331;48.148;16.326;2022-09-21T14:46:37;16.10;1.00
10566;DHT22;5331;48.148;16.326;2022-09-21T14:49:37;16.10;1.00
10566;DHT22;5331;48.148;16.326;2022-09-21T14:52:16;16.10;1.00
10566;DHT22;5331;48.148;16.326;2022-09-21T14:54:48;16.00;1.00
10566;DHT22;5331;48.148;16.326;2022-09-21T14:57:31;16.00;1.00
10566;DHT22;5331;48.148;16.326;2022-09-21T15:00:14;15.90;1.00
10566;DHT22;5331;48.148;16.326;2022-09-21T15:02:47;15.90;1.00
10566;DHT22;5331;48.148;16.326;2022-09-21T15:05:28;15.90;1.00
10566;DHT22;5331;48.148;16.326;2022-09-21T15:08:32;15.80;1.00
10566;DHT22;5331;48.148;16.326;2022-09-21T15:11:25;15.70;1.00
10566;DHT22;5331;48.148;16.326;2022-09-21T15:14:12;15.60;1.00
10566;DHT22;5331;48.148;16.326;2022-09-21T15:16:43;15.50;1.00
10566;DHT22;5331;48.148;16.326;2022-09-21T15:19:15;15.50;1.00
10566;DHT22;5331;48.148;16.326;2022-09-21T15:21:49;15.50;1.00
10566;DHT22;5331;48.148;16.326;2022-09-21T15:24:19;15.40;1.00
10566;DHT22;5331;48.148;16.326;2022-09-21T15:26:48;15.20;1.00
10566;DHT22;5331;48.148;16.326;2022-09-21T15:29:23;15.10;1.00
10566;DHT22;5331;48.148;16.326;2022-09-21T15:31:50;15.10;1.00
10566;DHT22;5331;48.148;16.326;2022-09-21T15:34:17;15.00;1.00
10566;DHT22;5331;48.148;16.326;2022-09-21T15:36:44;14.90;1.00
10566;DHT22;5331;48.148;16.326;2022-09-21T15:39:27;14.70;1.00
10566;DHT22;5331;48.148;16.326;2022-09-21T15:42:12;14.70;1.00
10566;DHT22;5331;48.148;16.326;2022-09-21T15:44:43;14.60;1.00
10566;DHT22;5331;48.148;16.326;2022-09-21T15:47:14;14.50;1.00
10566;DHT22;5331;48.148;16.326;2022-09-21T15:49:42;14.50;1.00
10566;DHT22;5331;48.148;16.326;2022-09-21T15:52:12;14.50;1.00
10566;DHT22;5331;48.148;16.326;2022-09-21T15:54:45;14.40;1.00
10566;DHT22;5331;48.148;16.326;2022-09-21T15:57:29;14.30;1.00
10566;DHT22;5331;48.148;16.326;2022-09-21T15:59:59;14.20;1.00
10566;DHT22;5331;48.148;16.326;2022-09-21T16:02:32;14.30;1.00
10566;DHT22;5331;48.148;16.326;2022-09-21T16:05:01;14.30;1.00
10566;DHT22;5331;48.148;16.326;2022-09-21T16:07:31;14.30;1.00
10566;DHT22;5331;48.148;16.326;2022-09-21T16:10:01;14.30;1.00
10566;DHT22;5331;48.148;16.326;2022-09-21T16:12:38;14.20;1.00
10566;DHT22;5331;48.148;16.326;2022-09-21T16:15:15;14.20;1.00
10566;DHT22;5331;48.148;16.326;2022-09-21T16:17:54;14.20;1.00
10566;DHT22;5331;48.148;16.326;2022-09-21T16:20:23;14.20;1.00
10566;DHT22;5331;48.148;16.326;2022-09-21T16:22:52;14.10;1.00
10566;DHT22;5331;48.148;16.326;2022-09-21T16:25:27;14.00;1.00
10566;DHT22;5331;48.148;16.326;2022-09-21T16:27:59;14.00;1.00
10566;DHT22;5331;48.148;16.326;2022-09-21T16:30:53;14.00;1.00
10566;DHT22;5331;48.148;16.326;2022-09-21T16:33:42;13.90;1.00
10566;DHT22;5331;48.148;16.326;2022-09-21T16:36:33;13.80;1.00
10566;DHT22;5331;48.148;16.326;2022-09-21T16:39:01;13.70;1.00
10566;DHT22;5331;48.148;16.326;2022-09-21T16:41:34;13.70;1.00